createdAt,value
2023-03-06T00:00:32.005Z,3.92
2023-03-06T00:01:30.777Z,3.91
2023-03-06T00:02:30.715Z,3.86
2023-03-06T00:03:31.056Z,3.94
2023-03-06T00:04:30.654Z,3.88
2023-03-06T00:05:30.768Z,3.84
2023-03-06T00:06:30.590Z,3.88
2023-03-06T00:07:30.541Z,3.94
2023-03-06T00:08:30.565Z,3.86
2023-03-06T00:09:30.482Z,3.78
2023-03-06T00:10:30.446Z,3.87
2023-03-06T00:11:30.442Z,3.76
2023-03-06T00:12:30.424Z,3.91
2023-03-06T00:13:30.331Z,3.91
2023-03-06T00:14:30.325Z,3.88
2023-03-06T00:15:30.302Z,3.81
2023-03-06T00:16:30.445Z,3.8
2023-03-06T00:17:30.217Z,3.78
2023-03-06T00:18:30.169Z,3.84
2023-03-06T00:19:30.160Z,3.83
2023-03-06T00:20:30.086Z,3.91
2023-03-06T00:21:30.051Z,3.84
2023-03-06T00:22:30.023Z,3.88
2023-03-06T00:23:29.998Z,3.84
2023-03-06T00:24:29.954Z,3.92
2023-03-06T00:25:29.973Z,3.86
2023-03-06T00:26:29.888Z,3.86
2023-03-06T00:27:29.866Z,3.74
2023-03-06T00:28:29.811Z,3.65
2023-03-06T00:29:29.787Z,3.76
2023-03-06T00:30:29.758Z,3.7
2023-03-06T00:31:29.993Z,3.8
2023-03-06T00:32:29.813Z,3.7
2023-03-06T00:33:29.671Z,3.7
2023-03-06T00:34:29.604Z,3.78
2023-03-06T00:35:29.679Z,3.74
2023-03-06T00:36:29.553Z,3.68
2023-03-06T00:37:29.518Z,3.78
2023-03-06T00:38:29.483Z,3.74
2023-03-06T00:39:29.451Z,3.76
2023-03-06T00:40:29.404Z,3.73
2023-03-06T00:41:29.366Z,3.7
2023-03-06T00:42:29.328Z,3.88
2023-03-06T00:43:29.314Z,3.86
2023-03-06T00:44:29.255Z,3.81
2023-03-06T00:45:29.384Z,3.76
2023-03-06T00:46:28.981Z,3.73
2023-03-06T00:47:29.189Z,3.76
2023-03-06T00:48:29.135Z,3.8
2023-03-06T00:49:29.109Z,3.74
2023-03-06T00:50:29.048Z,3.74
2023-03-06T00:51:29.013Z,3.73
2023-03-06T00:52:28.971Z,3.66
2023-03-06T00:53:28.937Z,3.69
2023-03-06T00:54:28.916Z,3.65
2023-03-06T00:55:28.900Z,3.77
2023-03-06T00:56:28.848Z,3.63
2023-03-06T00:57:28.897Z,3.66
2023-03-06T00:58:28.782Z,3.63
2023-03-06T00:59:28.746Z,3.65
2023-03-06T01:00:28.700Z,3.7
2023-03-06T01:01:28.680Z,3.68
2023-03-06T01:02:28.850Z,3.62
2023-03-06T01:03:28.608Z,3.74
2023-03-06T01:04:28.545Z,3.66
2023-03-06T01:05:28.602Z,3.66
2023-03-06T01:06:28.499Z,3.69
2023-03-06T01:07:28.443Z,3.76
2023-03-06T01:08:28.459Z,3.77
2023-03-06T01:09:28.373Z,3.77
2023-03-06T01:10:28.343Z,3.81
2023-03-06T01:11:28.324Z,3.77
2023-03-06T01:12:28.437Z,3.77
2023-03-06T01:13:28.262Z,3.76
2023-03-06T01:14:28.195Z,3.83
2023-03-06T01:15:28.195Z,3.8
2023-03-06T01:16:28.291Z,3.8
2023-03-06T01:17:28.101Z,3.73
2023-03-06T01:18:28.052Z,3.81
2023-03-06T01:19:28.117Z,3.84
2023-03-06T01:20:28.011Z,3.78
2023-03-06T01:21:28.006Z,3.81
2023-03-06T01:22:27.678Z,3.78
2023-03-06T01:23:27.901Z,3.8
2023-03-06T01:24:27.862Z,3.81
2023-03-06T01:25:27.815Z,3.88
2023-03-06T01:26:27.798Z,3.86
2023-03-06T01:27:27.743Z,3.81
2023-03-06T01:28:27.485Z,3.86
2023-03-06T01:29:27.709Z,3.73
2023-03-06T01:30:27.696Z,3.78
2023-03-06T01:31:27.807Z,3.88
2023-03-06T01:32:27.747Z,3.91
2023-03-06T01:33:27.539Z,3.87
2023-03-06T01:34:27.498Z,3.78
2023-03-06T01:35:27.630Z,3.77
2023-03-06T01:36:27.441Z,3.88
2023-03-06T01:37:27.423Z,3.88
2023-03-06T01:38:27.356Z,3.92
2023-03-06T01:39:27.335Z,3.91
2023-03-06T01:40:27.290Z,3.77
2023-03-06T01:41:27.259Z,3.83
2023-03-06T01:42:27.227Z,3.86
2023-03-06T01:43:27.199Z,3.87
2023-03-06T01:44:27.150Z,3.83
2023-03-06T01:45:26.908Z,3.8
2023-03-06T01:46:27.089Z,3.81
2023-03-06T01:47:27.089Z,3.77
2023-03-06T01:48:27.035Z,3.78
2023-03-06T01:49:26.988Z,3.91
2023-03-06T01:50:26.945Z,3.86
2023-03-06T01:51:26.935Z,3.77
2023-03-06T01:52:26.879Z,3.83
2023-03-06T01:53:26.880Z,3.95
2023-03-06T01:54:26.835Z,3.91
2023-03-06T01:55:26.774Z,3.92
2023-03-06T01:56:26.737Z,3.88
2023-03-06T01:57:26.716Z,3.76
2023-03-06T01:58:26.684Z,3.83
2023-03-06T01:59:26.640Z,3.91
2023-03-06T02:00:26.617Z,3.86
2023-03-06T02:01:26.758Z,3.92
2023-03-06T02:02:26.768Z,3.98
2023-03-06T02:03:26.568Z,3.91
2023-03-06T02:04:26.451Z,3.91
2023-03-06T02:05:26.435Z,3.91
2023-03-06T02:06:26.418Z,3.94
2023-03-06T02:07:26.402Z,3.91
2023-03-06T02:08:26.327Z,3.88
2023-03-06T02:09:26.306Z,3.91
2023-03-06T02:10:26.262Z,3.92
2023-03-06T02:11:26.390Z,3.94
2023-03-06T02:12:26.194Z,3.88
2023-03-06T02:13:26.221Z,3.92
2023-03-06T02:14:26.138Z,3.92
2023-03-06T02:15:26.144Z,3.92
2023-03-06T02:16:26.254Z,3.95
2023-03-06T02:17:26.007Z,3.94
2023-03-06T02:18:25.979Z,3.94
2023-03-06T02:19:25.956Z,3.91
2023-03-06T02:20:25.904Z,3.88
2023-03-06T02:21:25.880Z,3.88
2023-03-06T02:22:25.830Z,3.88
2023-03-06T02:23:25.818Z,3.92
2023-03-06T02:24:25.770Z,3.84
2023-03-06T02:25:25.754Z,3.91
2023-03-06T02:26:25.707Z,3.8
2023-03-06T02:27:25.694Z,3.92
2023-03-06T02:28:25.624Z,3.87
2023-03-06T02:29:25.593Z,3.87
2023-03-06T02:30:25.550Z,3.8
2023-03-06T02:31:25.592Z,3.86
2023-03-06T02:32:25.648Z,3.87
2023-03-06T02:33:25.459Z,3.76
2023-03-06T02:34:25.420Z,3.78
2023-03-06T02:35:25.525Z,3.87
2023-03-06T02:36:25.349Z,3.78
2023-03-06T02:37:25.329Z,3.91
2023-03-06T02:38:25.285Z,3.92
2023-03-06T02:39:25.282Z,3.83
2023-03-06T02:40:25.210Z,3.88
2023-03-06T02:41:25.205Z,3.87
2023-03-06T02:42:25.143Z,3.94
2023-03-06T02:43:25.116Z,3.8
2023-03-06T02:44:25.073Z,3.91
2023-03-06T02:45:25.039Z,3.88
2023-03-06T02:46:25.338Z,3.87
2023-03-06T02:47:24.981Z,3.76
2023-03-06T02:48:24.928Z,3.87
2023-03-06T02:49:26.721Z,3.86
2023-03-06T02:50:24.852Z,3.74
2023-03-06T02:51:24.844Z,3.77
2023-03-06T02:52:24.820Z,3.76
2023-03-06T02:53:24.778Z,3.86
2023-03-06T02:54:24.715Z,3.73
2023-03-06T02:55:24.719Z,3.8
2023-03-06T02:56:24.652Z,3.78
2023-03-06T02:57:24.643Z,3.77
2023-03-06T02:58:24.610Z,3.74
2023-03-06T02:59:24.549Z,3.69
2023-03-06T03:00:24.509Z,3.66
2023-03-06T03:01:24.531Z,3.7
2023-03-06T03:02:24.436Z,3.66
2023-03-06T03:03:24.420Z,3.77
2023-03-06T03:04:24.489Z,3.69
2023-03-06T03:05:24.373Z,3.6
2023-03-06T03:06:24.316Z,3.65
2023-03-06T03:07:24.289Z,3.69
2023-03-06T03:08:24.224Z,3.68
2023-03-06T03:09:24.195Z,3.66
2023-03-06T03:10:24.150Z,3.63
2023-03-06T03:11:24.158Z,3.63
2023-03-06T03:12:24.078Z,3.63
2023-03-06T03:13:24.072Z,3.65
2023-03-06T03:14:24.013Z,3.68
2023-03-06T03:15:24.015Z,3.76
2023-03-06T03:16:24.106Z,3.69
2023-03-06T03:17:23.906Z,3.66
2023-03-06T03:18:23.875Z,3.8
2023-03-06T03:19:23.862Z,3.68
2023-03-06T03:20:23.814Z,3.66
2023-03-06T03:21:23.792Z,3.65
2023-03-06T03:22:23.762Z,3.58
2023-03-06T03:23:23.718Z,3.65
2023-03-06T03:24:23.573Z,3.58
2023-03-06T03:25:23.436Z,3.6
2023-03-06T03:26:23.635Z,3.66
2023-03-06T03:27:23.599Z,3.53
2023-03-06T03:28:23.543Z,3.56
2023-03-06T03:29:23.514Z,3.6
2023-03-06T03:30:23.473Z,3.48
2023-03-06T03:31:23.650Z,3.42
2023-03-06T03:32:23.557Z,3.37
2023-03-06T03:33:23.119Z,3.37
2023-03-06T03:34:23.322Z,3.28
2023-03-06T03:35:23.361Z,3.29
2023-03-06T03:36:23.251Z,3.25
2023-03-06T03:37:23.217Z,3.22
2023-03-06T03:38:23.172Z,3.22
2023-03-06T03:39:23.161Z,3.18
2023-03-06T03:40:23.108Z,3.16
2023-03-06T03:41:23.087Z,3.16
2023-03-06T03:42:23.036Z,3.18
2023-03-06T03:43:22.794Z,3.11
2023-03-06T03:44:22.981Z,3.26
2023-03-06T03:45:22.959Z,3.18
2023-03-06T03:46:23.055Z,3.18
2023-03-06T03:47:22.896Z,3.29
2023-03-06T03:48:22.840Z,3.26
2023-03-06T03:49:22.795Z,3.28
2023-03-06T03:50:22.749Z,3.29
2023-03-06T03:51:22.718Z,3.4
2023-03-06T03:52:22.713Z,3.44
2023-03-06T03:53:22.412Z,3.4
2023-03-06T03:54:22.614Z,3.41
2023-03-06T03:55:22.637Z,3.37
2023-03-06T03:56:22.356Z,3.42
2023-03-06T03:57:22.573Z,3.34
2023-03-06T03:58:22.471Z,3.42
2023-03-06T03:59:22.458Z,3.4
2023-03-06T04:00:22.402Z,3.44
2023-03-06T04:01:22.408Z,3.41
2023-03-06T04:02:22.517Z,3.44
2023-03-06T04:03:22.297Z,3.36
2023-03-06T04:04:22.261Z,3.42
2023-03-06T04:05:22.218Z,3.4
2023-03-06T04:06:22.186Z,3.42
2023-03-06T04:07:22.150Z,3.42
2023-03-06T04:08:22.201Z,3.5
2023-03-06T04:09:22.086Z,3.44
2023-03-06T04:10:22.068Z,3.45
2023-03-06T04:11:22.041Z,3.48
2023-03-06T04:12:21.980Z,3.55
2023-03-06T04:13:21.945Z,3.51
2023-03-06T04:14:21.908Z,3.53
2023-03-06T04:15:21.926Z,3.56
2023-03-06T04:16:22.135Z,3.55
2023-03-06T04:17:21.840Z,3.56
2023-03-06T04:18:21.752Z,3.5
2023-03-06T04:19:21.505Z,3.5
2023-03-06T04:20:21.700Z,3.53
2023-03-06T04:21:21.680Z,3.48
2023-03-06T04:22:21.626Z,3.5
2023-03-06T04:23:21.603Z,3.53
2023-03-06T04:24:21.550Z,3.55
2023-03-06T04:25:21.548Z,3.5
2023-03-06T04:26:21.484Z,3.5
2023-03-06T04:27:21.497Z,3.53
2023-03-06T04:28:21.445Z,3.5
2023-03-06T04:29:21.379Z,3.51
2023-03-06T04:30:21.342Z,3.59
2023-03-06T04:31:21.565Z,3.51
2023-03-06T04:32:23.803Z,3.53
2023-03-06T04:33:21.284Z,3.48
2023-03-06T04:34:21.206Z,3.58
2023-03-06T04:35:21.276Z,3.53
2023-03-06T04:36:21.135Z,3.53
2023-03-06T04:37:21.112Z,3.47
2023-03-06T04:38:21.080Z,3.53
2023-03-06T04:39:21.046Z,3.42
2023-03-06T04:40:21.174Z,3.5
2023-03-06T04:41:21.199Z,3.48
2023-03-06T04:42:20.986Z,3.51
2023-03-06T04:43:20.920Z,3.5
2023-03-06T04:44:20.852Z,3.51
2023-03-06T04:45:21.035Z,3.51
2023-03-06T04:46:20.812Z,3.5
2023-03-06T04:47:23.799Z,3.58
2023-03-06T04:48:21.114Z,3.44
2023-03-06T04:49:20.721Z,3.55
2023-03-06T04:50:20.646Z,3.56
2023-03-06T04:51:20.622Z,3.5
2023-03-06T04:52:20.582Z,3.5
2023-03-06T04:53:20.531Z,3.53
2023-03-06T04:54:23.606Z,3.53
2023-03-06T04:55:20.471Z,3.62
2023-03-06T04:56:20.459Z,3.48
2023-03-06T04:57:20.400Z,3.47
2023-03-06T04:58:20.359Z,3.55
2023-03-06T04:59:20.371Z,3.59
2023-03-06T05:00:20.346Z,3.53
2023-03-06T05:01:20.401Z,3.62
2023-03-06T05:02:20.393Z,3.63
2023-03-06T05:03:20.215Z,3.58
2023-03-06T05:04:20.171Z,3.6
2023-03-06T05:05:20.151Z,3.59
2023-03-06T05:06:20.097Z,3.59
2023-03-06T05:07:20.045Z,3.62
2023-03-06T05:08:20.028Z,3.66
2023-03-06T05:09:19.965Z,3.66
2023-03-06T05:10:19.935Z,3.55
2023-03-06T05:11:19.905Z,3.56
2023-03-06T05:12:19.885Z,3.56
2023-03-06T05:13:19.935Z,3.55
2023-03-06T05:14:19.852Z,3.58
2023-03-06T05:15:19.815Z,3.51
2023-03-06T05:16:19.569Z,3.55
2023-03-06T05:17:19.708Z,3.55
2023-03-06T05:18:19.658Z,3.48
2023-03-06T05:19:20.968Z,3.41
2023-03-06T05:20:19.376Z,3.36
2023-03-06T05:21:19.636Z,3.36
2023-03-06T05:22:19.524Z,3.42
2023-03-06T05:23:19.485Z,3.34
2023-03-06T05:24:19.448Z,3.31
2023-03-06T05:25:19.433Z,3.11
2023-03-06T05:26:19.370Z,3.21
2023-03-06T05:27:21.630Z,3.21
2023-03-06T05:28:19.299Z,3.11
2023-03-06T05:29:19.317Z,3.11
2023-03-06T05:30:19.254Z,3.07
2023-03-06T05:31:19.472Z,3.14
2023-03-06T05:32:19.544Z,3.05
2023-03-06T05:33:19.121Z,3.07
2023-03-06T05:34:19.084Z,3
2023-03-06T05:35:19.092Z,2.98
2023-03-06T05:36:18.815Z,3.03
2023-03-06T05:37:19.381Z,2.97
2023-03-06T05:38:18.952Z,3
2023-03-06T05:39:18.953Z,2.98
2023-03-06T05:40:18.926Z,2.9
2023-03-06T05:41:18.868Z,2.95
2023-03-06T05:42:18.570Z,2.92
2023-03-06T05:43:18.778Z,2.97
2023-03-06T05:44:18.739Z,2.86
2023-03-06T05:45:18.706Z,2.93
2023-03-06T05:46:18.567Z,2.92
2023-03-06T05:47:18.696Z,2.89
2023-03-06T05:48:18.683Z,2.89
2023-03-06T05:49:18.578Z,2.89
2023-03-06T05:50:18.567Z,2.87
2023-03-06T05:51:18.536Z,2.9
2023-03-06T05:52:18.465Z,2.93
2023-03-06T05:53:18.458Z,2.9
2023-03-06T05:54:18.385Z,2.83
2023-03-06T05:55:18.352Z,2.86
2023-03-06T05:56:18.310Z,2.77
2023-03-06T05:57:18.284Z,2.9
2023-03-06T05:58:18.235Z,2.89
2023-03-06T05:59:18.214Z,2.77
2023-03-06T06:00:18.197Z,2.83
2023-03-06T06:01:18.141Z,2.77
2023-03-06T06:02:18.390Z,2.83
2023-03-06T06:03:18.191Z,2.83
2023-03-06T06:04:18.041Z,2.85
2023-03-06T06:05:18.080Z,2.85
2023-03-06T06:06:17.982Z,2.83
2023-03-06T06:07:17.953Z,2.83
2023-03-06T06:08:17.884Z,2.8
2023-03-06T06:09:18.768Z,2.89
2023-03-06T06:10:17.814Z,2.82
2023-03-06T06:11:17.792Z,2.83
2023-03-06T06:12:17.743Z,2.8
2023-03-06T06:13:17.723Z,2.85
2023-03-06T06:14:17.677Z,2.82
2023-03-06T06:15:17.671Z,2.85
2023-03-06T06:16:17.858Z,2.85
2023-03-06T06:17:17.574Z,2.79
2023-03-06T06:18:17.550Z,2.86
2023-03-06T06:19:17.531Z,2.83
2023-03-06T06:20:17.489Z,2.82
2023-03-06T06:21:17.195Z,2.75
2023-03-06T06:22:17.395Z,2.89
2023-03-06T06:23:17.381Z,2.9
2023-03-06T06:24:17.308Z,2.86
2023-03-06T06:25:17.315Z,2.87
2023-03-06T06:26:17.260Z,2.89
2023-03-06T06:27:16.965Z,2.95
2023-03-06T06:28:17.175Z,2.93
2023-03-06T06:29:17.153Z,2.93
2023-03-06T06:30:17.115Z,3.05
2023-03-06T06:31:17.461Z,3
2023-03-06T06:32:17.133Z,3.16
2023-03-06T06:33:16.995Z,3.1
2023-03-06T06:34:16.954Z,3.23
2023-03-06T06:35:16.970Z,3.26
2023-03-06T06:36:16.893Z,3.21
2023-03-06T06:37:16.848Z,3.18
2023-03-06T06:38:16.826Z,3.13
2023-03-06T06:39:16.819Z,3.14
2023-03-06T06:40:16.741Z,3.16
2023-03-06T06:42:26.312Z,3.22
2023-03-06T06:42:46.301Z,3.29
2023-03-06T06:43:46.462Z,3.23
2023-03-06T06:44:46.463Z,3.32
2023-03-06T06:45:47.312Z,3.28
2023-03-06T06:47:26.222Z,3.31
2023-03-06T06:47:46.794Z,3.31
2023-03-06T06:48:46.300Z,3.31
2023-03-06T06:49:46.324Z,3.32
2023-03-06T06:50:46.245Z,3.32
2023-03-06T06:51:46.197Z,3.28
2023-03-06T06:52:46.188Z,3.34
2023-03-06T06:53:46.108Z,3.4
2023-03-06T06:54:46.133Z,3.41
2023-03-06T06:55:46.076Z,3.4
2023-03-06T06:56:46.041Z,3.44
2023-03-06T06:57:45.980Z,3.44
2023-03-06T06:58:45.937Z,3.48
2023-03-06T06:59:45.990Z,3.55
2023-03-06T07:00:45.863Z,3.53
2023-03-06T07:01:46.148Z,3.56
2023-03-06T07:02:45.829Z,3.47
2023-03-06T07:03:45.946Z,3.53
2023-03-06T07:05:06.982Z,3.53
2023-03-06T07:05:45.803Z,3.5
2023-03-06T07:06:45.686Z,3.48
2023-03-06T07:07:45.647Z,3.51
2023-03-06T07:08:45.580Z,3.59
2023-03-06T07:09:45.548Z,3.62
2023-03-06T07:10:45.538Z,3.48
2023-03-06T07:11:45.546Z,3.6
2023-03-06T07:12:45.484Z,3.53
2023-03-06T07:13:45.405Z,3.6
2023-03-06T07:14:45.378Z,3.53
2023-03-06T07:15:45.480Z,3.63
2023-03-06T07:16:45.126Z,3.59
2023-03-06T07:17:45.276Z,3.51
2023-03-06T07:18:45.238Z,3.56
2023-03-06T07:19:45.218Z,3.56
2023-03-06T07:20:45.168Z,3.56
2023-03-06T07:21:45.160Z,3.6
2023-03-06T07:22:55.212Z,3.63
2023-03-06T07:23:45.073Z,3.65
2023-03-06T07:24:45.038Z,3.68
2023-03-06T07:25:44.963Z,3.78
2023-03-06T07:26:45.042Z,3.7
2023-03-06T07:27:52.654Z,3.68
2023-03-06T07:28:57.006Z,3.7
2023-03-06T07:29:44.857Z,3.63
2023-03-06T07:30:44.817Z,3.69
2023-03-06T07:31:44.926Z,3.7
2023-03-06T07:32:44.890Z,3.77
2023-03-06T07:33:44.713Z,3.78
2023-03-06T07:34:44.708Z,3.73
2023-03-06T07:35:44.704Z,3.84
2023-03-06T07:36:44.604Z,3.91
2023-03-06T07:37:44.588Z,3.91
2023-03-06T07:38:44.597Z,3.88
2023-03-06T07:39:44.509Z,3.87
2023-03-06T07:40:44.239Z,3.88
2023-03-06T07:41:44.449Z,3.83
2023-03-06T07:42:44.191Z,3.8
2023-03-06T07:43:44.367Z,3.86
2023-03-06T07:44:44.393Z,3.87
2023-03-06T07:45:44.313Z,3.88
2023-03-06T07:46:44.523Z,3.94
2023-03-06T07:47:44.243Z,3.87
2023-03-06T07:48:44.210Z,3.86
2023-03-06T07:49:44.158Z,3.87
2023-03-06T07:50:44.121Z,3.92
2023-03-06T07:51:43.847Z,3.94
2023-03-06T07:52:44.060Z,3.92
2023-03-06T07:53:44.042Z,3.92
2023-03-06T07:54:44.014Z,3.98
2023-03-06T07:55:44.015Z,4.02
2023-03-06T07:56:43.922Z,3.92
2023-03-06T07:57:43.881Z,3.96
2023-03-06T07:58:43.909Z,4.05
2023-03-06T07:59:43.587Z,3.98
2023-03-06T08:00:43.815Z,4.08
2023-03-06T08:01:43.766Z,4.05
2023-03-06T08:02:43.844Z,4.04
2023-03-06T08:03:43.943Z,4.1
2023-03-06T08:04:43.411Z,4.04
2023-03-06T08:05:43.659Z,4.04
2023-03-06T08:06:43.358Z,4.01
2023-03-06T08:07:43.333Z,4.06
2023-03-06T08:08:43.274Z,4.02
2023-03-06T08:09:43.619Z,4.05
2023-03-06T08:10:43.531Z,4.12
2023-03-06T08:11:43.415Z,4.13
2023-03-06T08:12:43.156Z,4.1
2023-03-06T08:13:43.359Z,4.16
2023-03-06T08:14:43.347Z,4.12
2023-03-06T08:15:42.794Z,4.24
2023-03-06T08:16:43.448Z,4.06
2023-03-06T08:17:43.208Z,4.19
2023-03-06T08:18:45.810Z,4.06
2023-03-06T08:19:43.128Z,4.12
2023-03-06T08:20:42.872Z,4.04
2023-03-06T08:21:43.114Z,4.1
2023-03-06T08:22:43.032Z,4.06
2023-03-06T08:23:43.033Z,4.02
2023-03-06T08:24:43.004Z,4.13
2023-03-06T08:25:42.923Z,4.06
2023-03-06T08:26:42.921Z,4.1
2023-03-06T08:27:42.855Z,4.06
2023-03-06T08:28:42.853Z,4.16
2023-03-06T08:29:42.798Z,4.12
2023-03-06T08:30:42.800Z,4.12
2023-03-06T08:31:42.737Z,4.04
2023-03-06T08:32:43.004Z,4.16
2023-03-06T08:33:42.662Z,4.24
2023-03-06T08:34:42.627Z,4.19
2023-03-06T08:35:42.772Z,4.2
2023-03-06T08:36:42.582Z,4.24
2023-03-06T08:37:42.692Z,4.26
2023-03-06T08:38:42.476Z,4.31
2023-03-06T08:39:42.445Z,4.31
2023-03-06T08:40:42.423Z,4.26
2023-03-06T08:41:42.391Z,4.26
2023-03-06T08:42:42.432Z,4.28
2023-03-06T08:43:42.311Z,4.17
2023-03-06T08:44:42.277Z,4.23
2023-03-06T08:45:42.396Z,4.2
2023-03-06T08:46:42.280Z,4.19
2023-03-06T08:47:42.175Z,4.23
2023-03-06T08:48:42.180Z,4.24
2023-03-06T08:49:42.120Z,4.19
2023-03-06T08:50:42.079Z,4.2
2023-03-06T08:51:42.058Z,4.2
2023-03-06T08:52:42.008Z,4.26
2023-03-06T08:53:47.867Z,4.28
2023-03-06T08:54:41.973Z,4.34
2023-03-06T08:55:41.908Z,4.4
2023-03-06T08:56:41.895Z,4.53
2023-03-06T08:57:41.832Z,4.53
2023-03-06T08:58:41.835Z,4.53
2023-03-06T08:59:41.771Z,4.56
2023-03-06T09:00:41.914Z,4.55
2023-03-06T09:01:41.904Z,4.55
2023-03-06T09:02:41.617Z,4.6
2023-03-06T09:03:41.642Z,4.66
2023-03-06T09:04:41.627Z,4.63
2023-03-06T09:05:41.569Z,4.73
2023-03-06T09:06:41.603Z,4.59
2023-03-06T09:07:41.507Z,4.53
2023-03-06T09:08:41.465Z,4.45
2023-03-06T09:09:41.429Z,4.3
2023-03-06T09:10:41.627Z,4.24
2023-03-06T09:11:41.366Z,4.35
2023-03-06T09:12:56.866Z,4.17
2023-03-06T09:13:41.299Z,4.06
2023-03-06T09:14:41.336Z,4.1
2023-03-06T09:15:41.246Z,4.05
2023-03-06T09:16:41.431Z,4.05
2023-03-06T09:17:41.371Z,3.94
2023-03-06T09:18:41.173Z,3.95
2023-03-06T09:19:41.129Z,4.04
2023-03-06T09:20:41.105Z,3.87
2023-03-06T09:21:40.785Z,4.05
2023-03-06T09:22:41.008Z,3.92
2023-03-06T09:23:40.959Z,3.92
2023-03-06T09:24:40.925Z,4.05
2023-03-06T09:25:40.651Z,4.08
2023-03-06T09:26:53.793Z,3.99
2023-03-06T09:27:40.587Z,3.94
2023-03-06T09:28:40.786Z,3.94
2023-03-06T09:29:40.778Z,4.06
2023-03-06T09:30:40.670Z,4.01
2023-03-06T09:31:40.445Z,4.01
2023-03-06T09:32:40.576Z,4.06
2023-03-06T09:33:40.645Z,4.1
2023-03-06T09:34:40.422Z,4.13
2023-03-06T09:35:40.733Z,4.12
2023-03-06T09:37:00.007Z,4.04
2023-03-06T09:37:40.488Z,4.05
2023-03-06T09:38:40.476Z,4.16
2023-03-06T09:39:40.423Z,4.06
2023-03-06T09:40:40.402Z,4.02
2023-03-06T09:41:40.367Z,4.05
2023-03-06T09:42:40.965Z,4.05
2023-03-06T09:43:40.304Z,4.06
2023-03-06T09:44:40.249Z,4.02
2023-03-06T09:45:40.265Z,4.1
2023-03-06T09:46:40.036Z,4.19
2023-03-06T09:47:40.169Z,4.28
2023-03-06T09:48:40.111Z,4.34
2023-03-06T09:49:39.852Z,4.45
2023-03-06T09:50:40.074Z,4.53
2023-03-06T09:51:40.004Z,4.62
2023-03-06T09:52:40.108Z,4.89
2023-03-06T09:53:39.946Z,4.92
2023-03-06T09:54:39.936Z,4.92
2023-03-06T09:55:39.940Z,4.87
2023-03-06T09:56:39.837Z,4.9
2023-03-06T09:57:39.809Z,4.8
2023-03-06T09:58:39.773Z,4.78
2023-03-06T09:59:39.738Z,4.75
2023-03-06T10:00:39.738Z,4.73
2023-03-06T10:01:39.708Z,4.71
2023-03-06T10:02:39.963Z,4.77
2023-03-06T10:03:39.621Z,4.59
2023-03-06T10:04:39.730Z,4.66
2023-03-06T10:05:39.541Z,4.66
2023-03-06T10:06:39.559Z,4.55
2023-03-06T10:07:39.231Z,4.42
2023-03-06T10:08:39.218Z,4.41
2023-03-06T10:09:39.157Z,4.4
2023-03-06T10:10:39.367Z,4.41
2023-03-06T10:11:39.346Z,4.44
2023-03-06T10:12:39.308Z,4.38
2023-03-06T10:13:39.284Z,4.45
2023-03-06T10:14:39.276Z,4.4
2023-03-06T10:15:39.515Z,4.49
2023-03-06T10:16:39.184Z,4.45
2023-03-06T10:17:40.722Z,4.35
2023-03-06T10:18:39.136Z,4.37
2023-03-06T10:19:39.101Z,4.31
2023-03-06T10:20:39.037Z,4.4
2023-03-06T10:21:38.999Z,4.41
2023-03-06T10:22:38.992Z,4.38
2023-03-06T10:23:38.939Z,4.37
2023-03-06T10:24:38.924Z,4.32
2023-03-06T10:25:38.869Z,4.31
2023-03-06T10:26:39.344Z,4.31
2023-03-06T10:27:38.801Z,4.31
2023-03-06T10:28:40.007Z,4.38
2023-03-06T10:29:39.278Z,4.41
2023-03-06T10:30:38.707Z,4.41
2023-03-06T10:31:38.772Z,4.44
2023-03-06T10:32:52.269Z,4.38
2023-03-06T10:33:38.611Z,4.38
2023-03-06T10:34:38.600Z,4.41
2023-03-06T10:35:38.647Z,4.45
2023-03-06T10:36:38.253Z,4.52
2023-03-06T10:37:38.462Z,4.53
2023-03-06T10:38:38.543Z,4.53
2023-03-06T10:39:38.418Z,4.63
2023-03-06T10:40:38.412Z,4.7
2023-03-06T10:41:38.408Z,4.86
2023-03-06T10:42:38.368Z,4.89
2023-03-06T10:43:41.128Z,4.84
2023-03-06T10:44:38.230Z,4.96
2023-03-06T10:45:53.457Z,5.1
2023-03-06T10:46:38.345Z,5.1
2023-03-06T10:47:38.150Z,5.1
2023-03-06T10:48:40.003Z,5.1
2023-03-06T10:49:38.078Z,5
2023-03-06T10:50:38.087Z,5.02
2023-03-06T10:51:38.039Z,4.97
2023-03-06T10:52:37.961Z,5.08
2023-03-06T10:53:37.921Z,5.14
2023-03-06T10:54:37.946Z,5.11
2023-03-06T10:55:37.866Z,5.11
2023-03-06T10:56:37.855Z,5.08
2023-03-06T10:57:37.557Z,5.05
2023-03-06T10:58:37.804Z,4.93
2023-03-06T10:59:37.793Z,4.97
2023-03-06T11:00:37.742Z,4.84
2023-03-06T11:01:37.641Z,4.86
2023-03-06T11:02:37.627Z,4.84
2023-03-06T11:03:37.613Z,4.84
2023-03-06T11:04:37.694Z,4.75
2023-03-06T11:05:37.289Z,4.73
2023-03-06T11:06:37.589Z,4.75
2023-03-06T11:07:37.232Z,4.68
2023-03-06T11:08:37.436Z,4.73
2023-03-06T11:09:37.417Z,4.74
2023-03-06T11:10:37.414Z,4.73
2023-03-06T11:11:42.706Z,4.89
2023-03-06T11:12:37.352Z,4.78
2023-03-06T11:13:37.266Z,4.84
2023-03-06T11:14:37.275Z,4.92
2023-03-06T11:15:37.192Z,4.77
2023-03-06T11:16:37.104Z,4.82
2023-03-06T11:17:37.126Z,4.8
2023-03-06T11:18:36.852Z,4.8
2023-03-06T11:19:37.067Z,4.84
2023-03-06T11:20:55.493Z,4.87
2023-03-06T11:21:36.800Z,4.94
2023-03-06T11:22:36.988Z,4.96
2023-03-06T11:23:36.683Z,4.99
2023-03-06T11:24:36.905Z,4.96
2023-03-06T11:25:36.869Z,4.93
2023-03-06T11:26:36.867Z,4.99
2023-03-06T11:27:36.787Z,4.99
2023-03-06T11:28:36.776Z,5.02
2023-03-06T11:29:41.361Z,5.1
2023-03-06T11:30:36.688Z,5.08
2023-03-06T11:31:36.769Z,5.07
2023-03-06T11:32:36.714Z,5.05
2023-03-06T11:33:36.585Z,5.11
2023-03-06T11:34:36.556Z,5.14
2023-03-06T11:35:36.672Z,5.26
2023-03-06T11:36:36.536Z,5.26
2023-03-06T11:37:36.234Z,5.26
2023-03-06T11:38:36.442Z,5.3
2023-03-06T11:39:36.166Z,5.39
2023-03-06T11:40:36.109Z,5.43
2023-03-06T11:41:36.347Z,5.5
2023-03-06T11:42:36.075Z,5.5
2023-03-06T11:43:36.256Z,5.43
2023-03-06T11:44:36.256Z,5.54
2023-03-06T11:45:36.186Z,5.48
2023-03-06T11:46:36.235Z,5.5
2023-03-06T11:47:36.129Z,5.56
2023-03-06T11:48:36.100Z,5.56
2023-03-06T11:49:36.054Z,5.54
2023-03-06T11:50:36.028Z,5.69
2023-03-06T11:51:35.995Z,5.73
2023-03-06T11:52:35.958Z,5.76
2023-03-06T11:53:35.935Z,5.73
2023-03-06T11:54:35.939Z,5.84
2023-03-06T11:55:35.872Z,5.87
2023-03-06T11:56:36.670Z,5.98
2023-03-06T11:57:35.798Z,5.97
2023-03-06T11:58:35.841Z,6.09
2023-03-06T11:59:35.754Z,6.02
2023-03-06T12:00:35.789Z,6.11
2023-03-06T12:01:35.716Z,6.2
2023-03-06T12:02:35.644Z,6.11
2023-03-06T12:03:35.609Z,6.08
2023-03-06T12:04:35.580Z,6.09
2023-03-06T12:05:35.762Z,6.07
2023-03-06T12:06:35.526Z,6.11
2023-03-06T12:07:35.519Z,6.14
2023-03-06T12:08:35.464Z,6.28
2023-03-06T12:09:35.428Z,6.41
2023-03-06T12:10:35.456Z,6.46
2023-03-06T12:11:37.947Z,6.46
2023-03-06T12:12:35.323Z,6.48
2023-03-06T12:13:35.310Z,6.51
2023-03-06T12:14:35.285Z,6.56
2023-03-06T12:15:35.259Z,6.54
2023-03-06T12:16:35.612Z,6.67
2023-03-06T12:17:35.175Z,6.6
2023-03-06T12:18:35.176Z,6.81
2023-03-06T12:19:34.874Z,6.93
2023-03-06T12:20:35.086Z,6.93
2023-03-06T12:21:35.802Z,7.13
2023-03-06T12:22:36.076Z,7.23
2023-03-06T12:23:34.970Z,7.24
2023-03-06T12:24:34.974Z,7.23
2023-03-06T12:25:34.931Z,7.1
2023-03-06T12:26:34.931Z,7.1
2023-03-06T12:27:34.852Z,7.14
2023-03-06T12:28:34.866Z,7.11
2023-03-06T12:29:34.794Z,7.23
2023-03-06T12:30:34.715Z,7.2
2023-03-06T12:31:34.876Z,7.21
2023-03-06T12:32:34.843Z,7.21
2023-03-06T12:33:35.868Z,7.35
2023-03-06T12:34:34.640Z,7.47
2023-03-06T12:35:34.732Z,7.51
2023-03-06T12:36:34.338Z,7.48
2023-03-06T12:37:34.547Z,7.47
2023-03-06T12:38:34.543Z,7.67
2023-03-06T12:39:34.497Z,7.76
2023-03-06T12:40:34.449Z,7.83
2023-03-06T12:41:34.428Z,8.01
2023-03-06T12:42:34.428Z,7.98
2023-03-06T12:43:34.139Z,8.09
2023-03-06T12:44:34.330Z,8.15
2023-03-06T12:45:34.307Z,8.2
2023-03-06T12:46:34.244Z,8.28
2023-03-06T12:47:33.990Z,8.34
2023-03-06T12:48:34.235Z,8.36
2023-03-06T12:49:37.622Z,8.31
2023-03-06T12:50:34.177Z,8.23
2023-03-06T12:51:34.128Z,8.12
2023-03-06T12:52:35.351Z,8.08
2023-03-06T12:53:34.088Z,8.13
2023-03-06T12:54:34.029Z,7.95
2023-03-06T12:55:34.018Z,7.9
2023-03-06T12:56:33.961Z,7.75
2023-03-06T12:57:33.951Z,7.61
2023-03-06T12:58:34.010Z,7.48
2023-03-06T12:59:33.903Z,7.32
2023-03-06T13:00:33.841Z,7.32
2023-03-06T13:01:33.923Z,7.23
2023-03-06T13:02:33.944Z,7.24
2023-03-06T13:03:33.753Z,7.24
2023-03-06T13:04:33.774Z,7.2
2023-03-06T13:05:33.450Z,7.07
2023-03-06T13:06:49.680Z,7
2023-03-06T13:07:33.688Z,6.95
2023-03-06T13:08:33.601Z,6.95
2023-03-06T13:09:33.585Z,6.85
2023-03-06T13:10:33.558Z,6.85
2023-03-06T13:11:33.511Z,6.78
2023-03-06T13:12:33.480Z,6.81
2023-03-06T13:13:33.455Z,6.77
2023-03-06T13:14:34.200Z,6.77
2023-03-06T13:15:33.424Z,6.78
2023-03-06T13:16:33.556Z,6.77
2023-03-06T13:17:33.351Z,6.72
2023-03-06T13:18:33.424Z,6.79
2023-03-06T13:19:33.260Z,6.78
2023-03-06T13:20:34.988Z,6.85
2023-03-06T13:21:33.231Z,6.78
2023-03-06T13:22:33.152Z,6.77